Stril Barents — LDMA — position and weather

sailwx.info

Track history (hours):
 
Tides and Currents Weather Stations Pressure Air Temp Water Temp Dewpoint Dewpoint Depression Visibility Wind Speed Wind Dir Waves Ship Positions

Stril Barents

Last reported at 2017-Dec-18 17:58 UTC. Time now 2017-Dec-18 18:30 UTC.
Position N 70°38' E 023°40'.

Length 94 m; draft 6.5 m.

Type: Cargo ship. MMSI: 257472000.

Date/timePositionNaut miles runAvg speedWind from/ knotsBaromVisibWave heightAir tempDewpointWater temp
2017-Dec-18 17:58N 70°38' E 023°40'0 0.0
2017-Dec-18 17:28N 70°38' E 023°40'0 0.0
2017-Dec-18 16:58N 70°38' E 023°40'0 0.0
2017-Dec-18 16:28N 70°38' E 023°40'0 0.0
2017-Dec-18 15:58N 70°38' E 023°40'0 0.0
2017-Dec-18 15:28N 70°38' E 023°40'0 0.0
2017-Dec-18 14:58N 70°38' E 023°40'0 0.0
2017-Dec-18 14:28N 70°38' E 023°40'0 0.0
2017-Dec-18 13:58N 70°38' E 023°40'0 0.0
2017-Dec-18 13:28N 70°38' E 023°40'0 0.0
2017-Dec-18 12:58N 70°38' E 023°40'0 0.1
2017-Dec-18 12:28N 70°38' E 023°40'0 0.0
2017-Dec-18 11:58N 70°38' E 023°40'0 0.0
2017-Dec-18 11:28N 70°38' E 023°40'0 0.0
2017-Dec-18 10:58N 70°38' E 023°40'0 0.0
2017-Dec-18 10:28N 70°38' E 023°40'0 0.0
2017-Dec-18 09:58N 70°38' E 023°40'0 0.0
2017-Dec-18 09:28N 70°38' E 023°40'0 0.0
2017-Dec-18 08:58N 70°38' E 023°40'0 0.0
2017-Dec-18 08:28N 70°38' E 023°40'0 0.0
2017-Dec-18 07:58N 70°38' E 023°40'0 0.0
2017-Dec-18 07:28N 70°38' E 023°40'0 0.1
2017-Dec-18 07:00N 70°38' E 023°40'3 5.2
2017-Dec-18 06:30N 70°40' E 023°34'4 7.1
2017-Dec-18 06:00N 70°44' E 023°33'3 6.6
2017-Dec-18 05:30N 70°47' E 023°32'3 6.3
2017-Dec-18 05:00N 70°50' E 023°30'3 6.2
2017-Dec-18 04:30N 70°52' E 023°23'3 6.1
2017-Dec-18 03:59N 70°54' E 023°17'3 5.7
2017-Dec-18 03:30N 70°57' E 023°12'3 5.8
2017-Dec-18 03:00N 70°59' E 023°06'3 5.4
2017-Dec-18 02:30N 71°01' E 023°01'2 4.8
2017-Dec-18 02:00N 71°03' E 022°57'3 5.5
2017-Dec-18 01:30N 71°05' E 022°52'3 5.8
2017-Dec-18 01:01N 71°08' E 022°46'3 5.4
2017-Dec-18 00:30N 71°10' E 022°41'1 0.2
2017-Dec-17 17:37N 71°11' E 022°39'112.2
2017-Dec-17 17:30N 71°10' E 022°41'612.5
2017-Dec-17 17:00N 71°05' E 022°53'612.3
2017-Dec-17 16:30N 70°60' E 023°04'612.8
2017-Dec-17 16:00N 70°55' E 023°16'713.2
2017-Dec-17 15:30N 70°50' E 023°30'713.5
2017-Dec-17 15:00N 70°43' E 023°33'510.3
2017-Dec-17 14:30N 70°38' E 023°37'1 1.6
2017-Dec-17 13:58N 70°38' E 023°40'0 0.0
2017-Dec-17 13:28N 70°38' E 023°40'0 0.0
2017-Dec-17 12:58N 70°38' E 023°40'0 0.0
2017-Dec-17 12:28N 70°38' E 023°40'0 0.0
2017-Dec-17 11:58N 70°38' E 023°40'0 0.0
2017-Dec-17 11:28N 70°38' E 023°40'0 0.0
2017-Dec-17 10:58N 70°38' E 023°40'0 0.0
2017-Dec-17 10:28N 70°38' E 023°40'0 0.0
2017-Dec-17 09:58N 70°38' E 023°40'0 0.0
2017-Dec-17 09:28N 70°38' E 023°40'0 0.0
2017-Dec-17 08:58N 70°38' E 023°40'0 0.0
2017-Dec-17 08:28N 70°38' E 023°40'0 0.0
2017-Dec-17 07:58N 70°38' E 023°40'0 0.0
2017-Dec-17 07:28N 70°38' E 023°40'0 0.0
2017-Dec-17 06:58N 70°38' E 023°40'0 0.0
2017-Dec-17 06:28N 70°38' E 023°40'0 0.0
2017-Dec-17 05:58N 70°38' E 023°40'0 0.0
2017-Dec-17 05:28N 70°38' E 023°40'0 0.0
2017-Dec-17 04:58N 70°38' E 023°40'0 0.0
2017-Dec-17 04:28N 70°38' E 023°40'0 0.0
2017-Dec-17 03:58N 70°38' E 023°40'0 0.0
2017-Dec-17 03:28N 70°38' E 023°40'0 0.0
2017-Dec-17 02:58N 70°38' E 023°40'0 0.0
2017-Dec-17 02:28N 70°38' E 023°40'0 0.0
2017-Dec-17 01:58N 70°38' E 023°40'0 0.0
2017-Dec-17 01:28N 70°38' E 023°40'0 0.0
2017-Dec-17 00:58N 70°38' E 023°40'0 0.0
2017-Dec-17 00:28N 70°38' E 023°40'0 0.0
2017-Dec-16 23:58N 70°38' E 023°40'0 0.0
2017-Dec-16 23:28N 70°38' E 023°40'0 0.0
2017-Dec-16 22:58N 70°38' E 023°40'0 0.0
2017-Dec-16 22:28N 70°38' E 023°40'0 0.0
2017-Dec-16 21:58N 70°38' E 023°40'0 0.0
2017-Dec-16 21:30N 70°38' E 023°40'1 2.7
2017-Dec-16 21:00N 70°39' E 023°36'5 9.8
2017-Dec-16 20:30N 70°43' E 023°33'611.0
2017-Dec-16 20:00N 70°49' E 023°31'510.9
2017-Dec-16 19:30N 70°53' E 023°20'510.9
2017-Dec-16 19:00N 70°57' E 023°09'611.1
2017-Dec-16 18:30N 71°01' E 022°59'611.2
2017-Dec-16 18:00N 71°06' E 022°48'611.1
2017-Dec-16 17:30N 71°10' E 022°38'38 0.8
2017-Dec-14 18:30N 70°38' E 023°40'0 0.0
2017-Dec-14 18:00N 70°38' E 023°40'0 0.0
2017-Dec-14 17:30N 70°38' E 023°40'0 0.0
2017-Dec-14 17:00N 70°38' E 023°40'0 0.0
2017-Dec-14 16:30N 70°38' E 023°40'0 0.0
2017-Dec-14 16:00N 70°38' E 023°40'0 0.0
2017-Dec-14 15:00N 70°38' E 023°40'0 0.0
2017-Dec-14 14:30N 70°38' E 023°40'0 0.0
2017-Dec-14 14:00N 70°38' E 023°40'0 0.0
2017-Dec-14 13:30N 70°38' E 023°40'0 0.0
2017-Dec-14 13:00N 70°38' E 023°40'0 0.0
2017-Dec-14 12:30N 70°38' E 023°40'0 0.0
2017-Dec-14 12:00N 70°38' E 023°40'0 0.0
2017-Dec-14 11:30N 70°38' E 023°40'0 0.0
2017-Dec-14 11:00N 70°38' E 023°40'0 0.0
2017-Dec-14 10:30N 70°38' E 023°40'0 0.0
2017-Dec-14 10:00N 70°38' E 023°40'0 0.0
2017-Dec-14 09:30N 70°38' E 023°40'0 0.0
2017-Dec-14 09:00N 70°38' E 023°40'0 0.0
2017-Dec-14 08:30N 70°38' E 023°40'0 0.0
2017-Dec-14 08:00N 70°38' E 023°40'0 0.0
2017-Dec-14 07:30N 70°38' E 023°40'0 0.0
2017-Dec-14 07:00N 70°38' E 023°40'0 0.0
2017-Dec-14 06:30N 70°38' E 023°40'0 0.0
2017-Dec-14 06:00N 70°38' E 023°40'0 0.0
2017-Dec-14 05:30N 70°38' E 023°40'0 0.0
2017-Dec-14 05:00N 70°38' E 023°40'0 0.0
2017-Dec-14 04:30N 70°38' E 023°40'0 0.0
2017-Dec-14 04:00N 70°38' E 023°40'0 0.0
2017-Dec-14 03:29N 70°38' E 023°40'0 0.0
2017-Dec-14 03:00N 70°38' E 023°40'0 0.0
2017-Dec-14 02:30N 70°38' E 023°40'0 0.0
2017-Dec-14 02:00N 70°38' E 023°40'0 0.0
2017-Dec-14 01:30N 70°38' E 023°40'0 0.0
2017-Dec-14 01:00N 70°38' E 023°40'0 0.0
2017-Dec-14 00:30N 70°38' E 023°40'0 0.0
2017-Dec-14 00:00N 70°38' E 023°40'0 0.0
2017-Dec-13 23:30N 70°38' E 023°40'0 0.0
2017-Dec-13 23:00N 70°38' E 023°40'0 0.0
2017-Dec-13 22:30N 70°38' E 023°40'0 0.0
2017-Dec-13 22:00N 70°38' E 023°40'0 0.0
2017-Dec-13 21:30N 70°38' E 023°40'0 0.0
2017-Dec-13 21:00N 70°38' E 023°40'0 0.0
2017-Dec-13 20:30N 70°38' E 023°40'0 0.0
2017-Dec-13 20:00N 70°38' E 023°40'0 0.0
2017-Dec-13 19:29N 70°38' E 023°40'0 0.0
2017-Dec-13 18:59N 70°38' E 023°40'0 0.0
2017-Dec-13 18:30N 70°38' E 023°40'0 0.0
2017-Dec-13 17:59N 70°38' E 023°40'0 0.0
2017-Dec-13 17:29N 70°38' E 023°40'0 0.0
2017-Dec-13 16:59N 70°38' E 023°40'0 0.0
2017-Dec-13 16:29N 70°38' E 023°40'0 0.0
2017-Dec-13 15:59N 70°38' E 023°40'0 0.0
2017-Dec-13 15:30N 70°38' E 023°40'0 0.0
2017-Dec-13 15:00N 70°38' E 023°40'1 2.4
2017-Dec-13 14:30N 70°38' E 023°36'5 9.5
2017-Dec-13 14:01N 70°43' E 023°33'611.2
2017-Dec-13 13:31N 70°49' E 023°31'510.3
2017-Dec-13 13:00N 70°53' E 023°21'510.1
2017-Dec-13 12:30N 70°56' E 023°11'510.2
2017-Dec-13 12:00N 71°00' E 023°01'510.4
2017-Dec-13 11:30N 71°04' E 022°51'510.6
2017-Dec-13 11:00N 71°09' E 022°41'2 0.4
2017-Dec-13 04:59N 71°11' E 022°39'5 9.7
2017-Dec-13 04:30N 71°07' E 022°48'5 9.8
2017-Dec-13 04:00N 71°03' E 022°56'5 9.7
2017-Dec-13 03:30N 70°59' E 023°05'5 9.8
2017-Dec-13 03:00N 70°55' E 023°14'510.8
2017-Dec-13 02:30N 70°51' E 023°26'510.1
2017-Dec-13 02:00N 70°47' E 023°32'511.0
2017-Dec-13 01:30N 70°41' E 023°33'4 7.1
2017-Dec-13 01:00N 70°38' E 023°39'0 0.6
2017-Dec-13 00:29N 70°38' E 023°40'0 0.0
2017-Dec-12 23:59N 70°38' E 023°40'0 0.0
2017-Dec-12 23:30N 70°38' E 023°40'0 0.0
2017-Dec-12 22:59N 70°38' E 023°40'0 0.0
2017-Dec-12 22:29N 70°38' E 023°40'0 0.0
2017-Dec-12 21:59N 70°38' E 023°40'0 0.0
2017-Dec-12 21:29N 70°38' E 023°40'0 0.0
2017-Dec-12 21:00N 70°38' E 023°40'0 0.0
2017-Dec-12 20:29N 70°38' E 023°40'0 0.0
2017-Dec-12 19:59N 70°38' E 023°40'0 0.0
2017-Dec-12 19:30N 70°38' E 023°40'0 0.0
2017-Dec-12 18:59N 70°38' E 023°40'0 0.0
2017-Dec-12 18:29N 70°38' E 023°40'0 0.0
2017-Dec-12 17:59N 70°38' E 023°40'0 0.0
2017-Dec-12 17:29N 70°38' E 023°40'0 0.0
2017-Dec-12 16:59N 70°38' E 023°40'0 0.0
2017-Dec-12 16:29N 70°38' E 023°40'0 0.0
2017-Dec-12 15:59N 70°38' E 023°40'0 0.0
2017-Dec-12 15:29N 70°38' E 023°40'0 0.0
2017-Dec-12 14:59N 70°38' E 023°40'0 0.0
2017-Dec-12 14:29N 70°38' E 023°40'0 0.0
2017-Dec-12 13:59N 70°38' E 023°40'0 0.0
2017-Dec-12 13:29N 70°38' E 023°40'0 0.0
2017-Dec-12 12:59N 70°38' E 023°40'0 0.0
2017-Dec-12 12:29N 70°38' E 023°40'0 0.0
2017-Dec-12 11:59N 70°38' E 023°40'0 0.0
2017-Dec-12 11:29N 70°38' E 023°40'0 0.0
2017-Dec-12 10:59N 70°38' E 023°40'0 0.0
2017-Dec-12 10:29N 70°38' E 023°40'0 0.0
2017-Dec-12 09:59N 70°38' E 023°40'0 0.0
2017-Dec-12 09:29N 70°38' E 023°40'0 0.0
2017-Dec-12 08:59N 70°38' E 023°40'0 0.0
2017-Dec-12 08:29N 70°38' E 023°40'0 0.0
2017-Dec-12 07:59N 70°38' E 023°40'0 0.0
2017-Dec-12 07:29N 70°38' E 023°40'0 0.0
2017-Dec-12 06:59N 70°38' E 023°40'0 0.0
2017-Dec-12 06:29N 70°38' E 023°40'0 0.0
2017-Dec-12 05:59N 70°38' E 023°40'0 0.0
2017-Dec-12 05:29N 70°38' E 023°40'0 0.0
2017-Dec-12 04:59N 70°38' E 023°40'0 0.0
2017-Dec-12 04:29N 70°38' E 023°40'0 0.0
2017-Dec-12 03:59N 70°38' E 023°40'0 0.0
2017-Dec-12 03:29N 70°38' E 023°40'0 0.0
2017-Dec-12 02:59N 70°38' E 023°40'0 0.0
2017-Dec-12 02:29N 70°38' E 023°40'0 0.0
2017-Dec-12 01:59N 70°38' E 023°40'0 0.0
2017-Dec-12 01:29N 70°38' E 023°40'0 0.0
2017-Dec-12 00:59N 70°38' E 023°40'0 0.0
2017-Dec-12 00:29N 70°38' E 023°40'0 0.0
2017-Dec-11 23:59N 70°38' E 023°40'0 0.0
2017-Dec-11 23:29N 70°38' E 023°40'0 0.0
2017-Dec-11 22:59N 70°38' E 023°40'0 0.0
2017-Dec-11 22:29N 70°38' E 023°40'0 0.0
2017-Dec-11 21:59N 70°38' E 023°40'0 0.0
2017-Dec-11 21:29N 70°38' E 023°40'0 0.0
2017-Dec-11 20:59N 70°38' E 023°40'0 0.0
2017-Dec-11 20:29N 70°38' E 023°40'0 0.0
2017-Dec-11 19:59N 70°38' E 023°40'0 0.0
2017-Dec-11 19:29N 70°38' E 023°40'0 0.0
2017-Dec-11 18:59N 70°38' E 023°40'0 0.0
2017-Dec-11 18:29N 70°38' E 023°40'0 0.0
2017-Dec-11 17:59N 70°38' E 023°40'0 0.0
2017-Dec-11 17:29N 70°38' E 023°40'0 0.0
2017-Dec-11 16:59N 70°38' E 023°40'0 0.0
2017-Dec-11 16:29N 70°38' E 023°40'0 0.0
2017-Dec-11 15:59N 70°38' E 023°40'0 0.0
2017-Dec-11 15:29N 70°38' E 023°40'0 0.0
2017-Dec-11 14:59N 70°38' E 023°40'0 0.0
2017-Dec-11 14:29N 70°38' E 023°40'0 0.0
2017-Dec-11 13:53N 70°38' E 023°40'0 0.0
2017-Dec-11 13:29N 70°38' E 023°40'0 0.0
2017-Dec-11 12:59N 70°38' E 023°40'0 0.0
2017-Dec-11 12:29N 70°38' E 023°40'0 0.0
2017-Dec-11 11:59N 70°38' E 023°40'0 0.0
2017-Dec-11 11:29N 70°38' E 023°40'0 0.0
2017-Dec-11 10:59N 70°38' E 023°40'0 0.0
2017-Dec-11 10:29N 70°38' E 023°40'0 0.0
2017-Dec-11 09:59N 70°38' E 023°40'0 0.0
2017-Dec-11 09:29N 70°38' E 023°40'0 0.0
2017-Dec-11 08:59N 70°38' E 023°40'0 0.0
2017-Dec-11 08:29N 70°38' E 023°40'0 0.0
2017-Dec-11 07:59N 70°38' E 023°40'0 0.0
2017-Dec-11 07:29N 70°38' E 023°40'0 0.0
2017-Dec-11 06:59N 70°38' E 023°40'0 0.0
2017-Dec-11 06:29N 70°38' E 023°40'0 0.0
2017-Dec-11 05:59N 70°38' E 023°40'0 0.0
2017-Dec-11 05:29N 70°38' E 023°40'0 0.0
2017-Dec-11 04:59N 70°38' E 023°40'0 0.0
2017-Dec-11 04:29N 70°38' E 023°40'0 0.0
2017-Dec-11 03:59N 70°38' E 023°40'0 0.0
2017-Dec-11 03:29N 70°38' E 023°40'0 0.0
2017-Dec-11 02:59N 70°38' E 023°40'0 0.0
2017-Dec-11 02:29N 70°38' E 023°40'0 0.0
2017-Dec-11 01:59N 70°38' E 023°40'0 0.0
2017-Dec-11 01:29N 70°38' E 023°40'0 0.0
2017-Dec-11 00:59N 70°38' E 023°40'0 0.0
2017-Dec-11 00:29N 70°38' E 023°40'0 0.0
2017-Dec-10 23:59N 70°38' E 023°40'0 0.0
2017-Dec-10 23:29N 70°38' E 023°40'0 0.0
2017-Dec-10 22:59N 70°38' E 023°40'0 0.0
2017-Dec-10 22:29N 70°38' E 023°40'0 0.0
2017-Dec-10 21:59N 70°38' E 023°40'0 0.0
2017-Dec-10 21:29N 70°38' E 023°40'0 0.0
2017-Dec-10 20:59N 70°38' E 023°40'0 0.0
2017-Dec-10 20:29N 70°38' E 023°40'0 0.0
2017-Dec-10 19:59N 70°38' E 023°40'0 0.0
2017-Dec-10 19:30N 70°38' E 023°40'3 5.3
2017-Dec-10 19:00N 70°40' E 023°34'5 9.6
2017-Dec-10 18:30N 70°45' E 023°33'5 9.8
2017-Dec-10 18:00N 70°50' E 023°30'510.2
2017-Dec-10 17:30N 70°53' E 023°19'3 5.5
2017-Dec-10 17:00N 70°56' E 023°14'4 8.0
2017-Dec-10 16:30N 70°59' E 023°06'611.2
2017-Dec-10 16:00N 71°03' E 022°56'511.0
2017-Dec-10 15:30N 71°08' E 022°46'4 0.5
2017-Dec-10 07:07N 71°11' E 022°39'1 8.9
2017-Dec-10 07:00N 71°10' E 022°41'5 9.3
2017-Dec-10 06:30N 71°06' E 022°49'5 9.7
2017-Dec-10 06:00N 71°02' E 022°58'510.5
2017-Dec-10 05:30N 70°58' E 023°08'510.2
2017-Dec-10 05:00N 70°54' E 023°17'510.2
2017-Dec-10 04:30N 70°50' E 023°28'510.1
2017-Dec-10 03:59N 70°45' E 023°33'511.0
2017-Dec-10 03:30N 70°40' E 023°34'3 5.5
2017-Dec-10 03:00N 70°38' E 023°40'0 0.0
2017-Dec-10 02:30N 70°38' E 023°40'0 0.0
2017-Dec-10 02:00N 70°38' E 023°40'0 0.0
2017-Dec-10 01:30N 70°38' E 023°40'0 0.0
2017-Dec-10 01:00N 70°38' E 023°40'0 0.0
2017-Dec-10 00:30N 70°38' E 023°40'0 0.0
2017-Dec-10 00:00N 70°38' E 023°40'0 0.0
2017-Dec-09 23:30N 70°38' E 023°40'0 0.0
2017-Dec-09 23:00N 70°38' E 023°40'0 0.0
2017-Dec-09 22:30N 70°38' E 023°40'0 0.0
2017-Dec-09 22:00N 70°38' E 023°40'0 0.0
2017-Dec-09 21:30N 70°38' E 023°40'0 0.0
2017-Dec-09 21:00N 70°38' E 023°40'0 0.0
2017-Dec-09 20:30N 70°38' E 023°40'0 0.0
2017-Dec-09 20:00N 70°38' E 023°40'0 0.0
2017-Dec-09 19:30N 70°38' E 023°40'0 0.0
2017-Dec-09 19:00N 70°38' E 023°40'0 0.0
2017-Dec-09 18:30N 70°38' E 023°40'0 0.0
2017-Dec-09 18:00N 70°38' E 023°40'0 0.0
2017-Dec-09 17:30N 70°38' E 023°40'0 0.0
2017-Dec-09 17:00N 70°38' E 023°40'0 0.0
2017-Dec-09 16:30N 70°38' E 023°40'0 0.0
2017-Dec-09 16:00N 70°38' E 023°40'0 0.0
2017-Dec-09 15:30N 70°38' E 023°40'0 0.0
2017-Dec-09 15:00N 70°38' E 023°40'0 0.0
2017-Dec-09 14:30N 70°38' E 023°40'0 0.0
2017-Dec-09 14:00N 70°38' E 023°40'0 0.0
2017-Dec-09 13:30N 70°38' E 023°40'0 0.0
2017-Dec-09 13:00N 70°38' E 023°40'0 0.0
2017-Dec-09 12:30N 70°38' E 023°40'0 0.0
2017-Dec-09 12:00N 70°38' E 023°40'0 0.0
2017-Dec-09 11:30N 70°38' E 023°40'0 0.0
2017-Dec-09 11:00N 70°38' E 023°40'0 0.0
2017-Dec-09 10:30N 70°38' E 023°40'0 0.0
2017-Dec-09 10:00N 70°38' E 023°40'0 0.0
2017-Dec-09 09:30N 70°38' E 023°40'0 0.0
2017-Dec-09 09:00N 70°38' E 023°40'0 0.0
2017-Dec-09 08:30N 70°38' E 023°40'0 0.0
2017-Dec-09 08:00N 70°38' E 023°40'0 0.0
2017-Dec-09 07:30N 70°38' E 023°40'0 0.0
2017-Dec-09 07:00N 70°38' E 023°40'0 0.0
2017-Dec-09 06:30N 70°38' E 023°40'0 0.0
2017-Dec-09 06:00N 70°38' E 023°40'0 0.0
2017-Dec-09 05:30N 70°38' E 023°40'0 0.0
2017-Dec-09 05:00N 70°38' E 023°40'0 0.0
2017-Dec-09 04:30N 70°38' E 023°40'0 0.0
2017-Dec-09 04:00N 70°38' E 023°40'0 0.0
2017-Dec-09 03:30N 70°38' E 023°40'0 0.0
2017-Dec-09 03:00N 70°38' E 023°40'0 0.0
2017-Dec-09 02:30N 70°38' E 023°40'0 0.0
2017-Dec-09 02:00N 70°38' E 023°40'0 0.0
2017-Dec-09 01:30N 70°38' E 023°40'0 0.0
2017-Dec-09 01:00N 70°38' E 023°40'0 0.0
2017-Dec-09 00:30N 70°38' E 023°40'0 0.0
2017-Dec-09 00:00N 70°38' E 023°40'0 0.0
2017-Dec-08 23:30N 70°38' E 023°40'0 0.0
2017-Dec-08 23:00N 70°38' E 023°40'0 0.0
2017-Dec-08 22:30N 70°38' E 023°40'0 0.0
2017-Dec-08 22:00N 70°38' E 023°40'0 0.0
2017-Dec-08 21:30N 70°38' E 023°40'0 0.0
2017-Dec-08 21:00N 70°38' E 023°40'0 0.0
2017-Dec-08 20:30N 70°38' E 023°40'0 0.0
2017-Dec-08 20:00N 70°38' E 023°40'0 0.0
2017-Dec-08 19:30N 70°38' E 023°40'0 0.0
2017-Dec-08 19:00N 70°38' E 023°40'0 0.0
2017-Dec-08 18:30N 70°38' E 023°40'0 0.0
2017-Dec-08 18:00N 70°38' E 023°40'  
Track history (hours):
 
Tides and Currents Weather Stations Pressure Air Temp Water Temp Dewpoint Dewpoint Depression Visibility Wind Speed Wind Dir Waves Ship Positions

Stril Barents

Last reported at 2017-Dec-18 17:58 UTC. Time now 2017-Dec-18 18:30 UTC.
Position N 70°38' E 023°40'.

Length 94 m; draft 6.5 m.

Type: Cargo ship. MMSI: 257472000.

Date/timePositionNaut miles runAvg speedWind from/ knotsBaromVisibWave heightAir tempDewpointWater temp
2017-Dec-18 17:58N 70°38' E 023°40'0 0.0
2017-Dec-18 17:28N 70°38' E 023°40'0 0.0
2017-Dec-18 16:58N 70°38' E 023°40'0 0.0
2017-Dec-18 16:28N 70°38' E 023°40'0 0.0
2017-Dec-18 15:58N 70°38' E 023°40'0 0.0
2017-Dec-18 15:28N 70°38' E 023°40'0 0.0
2017-Dec-18 14:58N 70°38' E 023°40'0 0.0
2017-Dec-18 14:28N 70°38' E 023°40'0 0.0
2017-Dec-18 13:58N 70°38' E 023°40'0 0.0
2017-Dec-18 13:28N 70°38' E 023°40'0 0.0
2017-Dec-18 12:58N 70°38' E 023°40'0 0.1
2017-Dec-18 12:28N 70°38' E 023°40'0 0.0
2017-Dec-18 11:58N 70°38' E 023°40'0 0.0
2017-Dec-18 11:28N 70°38' E 023°40'0 0.0
2017-Dec-18 10:58N 70°38' E 023°40'0 0.0
2017-Dec-18 10:28N 70°38' E 023°40'0 0.0
2017-Dec-18 09:58N 70°38' E 023°40'0 0.0
2017-Dec-18 09:28N 70°38' E 023°40'0 0.0
2017-Dec-18 08:58N 70°38' E 023°40'0 0.0
2017-Dec-18 08:28N 70°38' E 023°40'0 0.0
2017-Dec-18 07:58N 70°38' E 023°40'0 0.0
2017-Dec-18 07:28N 70°38' E 023°40'0 0.1
2017-Dec-18 07:00N 70°38' E 023°40'3 5.2
2017-Dec-18 06:30N 70°40' E 023°34'4 7.1
2017-Dec-18 06:00N 70°44' E 023°33'3 6.6
2017-Dec-18 05:30N 70°47' E 023°32'3 6.3
2017-Dec-18 05:00N 70°50' E 023°30'3 6.2
2017-Dec-18 04:30N 70°52' E 023°23'3 6.1
2017-Dec-18 03:59N 70°54' E 023°17'3 5.7
2017-Dec-18 03:30N 70°57' E 023°12'3 5.8
2017-Dec-18 03:00N 70°59' E 023°06'3 5.4
2017-Dec-18 02:30N 71°01' E 023°01'2 4.8
2017-Dec-18 02:00N 71°03' E 022°57'3 5.5
2017-Dec-18 01:30N 71°05' E 022°52'3 5.8
2017-Dec-18 01:01N 71°08' E 022°46'3 5.4
2017-Dec-18 00:30N 71°10' E 022°41'1 0.2
2017-Dec-17 17:37N 71°11' E 022°39'112.2
2017-Dec-17 17:30N 71°10' E 022°41'612.5
2017-Dec-17 17:00N 71°05' E 022°53'612.3
2017-Dec-17 16:30N 70°60' E 023°04'612.8
2017-Dec-17 16:00N 70°55' E 023°16'713.2
2017-Dec-17 15:30N 70°50' E 023°30'713.5
2017-Dec-17 15:00N 70°43' E 023°33'510.3
2017-Dec-17 14:30N 70°38' E 023°37'1 1.6
2017-Dec-17 13:58N 70°38' E 023°40'0 0.0
2017-Dec-17 13:28N 70°38' E 023°40'0 0.0
2017-Dec-17 12:58N 70°38' E 023°40'0 0.0
2017-Dec-17 12:28N 70°38' E 023°40'0 0.0
2017-Dec-17 11:58N 70°38' E 023°40'0 0.0
2017-Dec-17 11:28N 70°38' E 023°40'0 0.0
2017-Dec-17 10:58N 70°38' E 023°40'0 0.0
2017-Dec-17 10:28N 70°38' E 023°40'0 0.0
2017-Dec-17 09:58N 70°38' E 023°40'0 0.0
2017-Dec-17 09:28N 70°38' E 023°40'0 0.0
2017-Dec-17 08:58N 70°38' E 023°40'0 0.0
2017-Dec-17 08:28N 70°38' E 023°40'0 0.0
2017-Dec-17 07:58N 70°38' E 023°40'0 0.0
2017-Dec-17 07:28N 70°38' E 023°40'0 0.0
2017-Dec-17 06:58N 70°38' E 023°40'0 0.0
2017-Dec-17 06:28N 70°38' E 023°40'0 0.0
2017-Dec-17 05:58N 70°38' E 023°40'0 0.0
2017-Dec-17 05:28N 70°38' E 023°40'0 0.0
2017-Dec-17 04:58N 70°38' E 023°40'0 0.0
2017-Dec-17 04:28N 70°38' E 023°40'0 0.0
2017-Dec-17 03:58N 70°38' E 023°40'0 0.0
2017-Dec-17 03:28N 70°38' E 023°40'0 0.0
2017-Dec-17 02:58N 70°38' E 023°40'0 0.0
2017-Dec-17 02:28N 70°38' E 023°40'0 0.0
2017-Dec-17 01:58N 70°38' E 023°40'0 0.0
2017-Dec-17 01:28N 70°38' E 023°40'0 0.0
2017-Dec-17 00:58N 70°38' E 023°40'0 0.0
2017-Dec-17 00:28N 70°38' E 023°40'0 0.0
2017-Dec-16 23:58N 70°38' E 023°40'0 0.0
2017-Dec-16 23:28N 70°38' E 023°40'0 0.0
2017-Dec-16 22:58N 70°38' E 023°40'0 0.0
2017-Dec-16 22:28N 70°38' E 023°40'0 0.0
2017-Dec-16 21:58N 70°38' E 023°40'0 0.0
2017-Dec-16 21:30N 70°38' E 023°40'1 2.7
2017-Dec-16 21:00N 70°39' E 023°36'5 9.8
2017-Dec-16 20:30N 70°43' E 023°33'611.0
2017-Dec-16 20:00N 70°49' E 023°31'510.9
2017-Dec-16 19:30N 70°53' E 023°20'510.9
2017-Dec-16 19:00N 70°57' E 023°09'611.1
2017-Dec-16 18:30N 71°01' E 022°59'611.2
2017-Dec-16 18:00N 71°06' E 022°48'611.1
2017-Dec-16 17:30N 71°10' E 022°38'38 0.8
2017-Dec-14 18:30N 70°38' E 023°40'0 0.0
2017-Dec-14 18:00N 70°38' E 023°40'0 0.0
2017-Dec-14 17:30N 70°38' E 023°40'0 0.0
2017-Dec-14 17:00N 70°38' E 023°40'0 0.0
2017-Dec-14 16:30N 70°38' E 023°40'0 0.0
2017-Dec-14 16:00N 70°38' E 023°40'0 0.0
2017-Dec-14 15:00N 70°38' E 023°40'0 0.0
2017-Dec-14 14:30N 70°38' E 023°40'0 0.0
2017-Dec-14 14:00N 70°38' E 023°40'0 0.0
2017-Dec-14 13:30N 70°38' E 023°40'0 0.0
2017-Dec-14 13:00N 70°38' E 023°40'0 0.0
2017-Dec-14 12:30N 70°38' E 023°40'0 0.0
2017-Dec-14 12:00N 70°38' E 023°40'0 0.0
2017-Dec-14 11:30N 70°38' E 023°40'0 0.0
2017-Dec-14 11:00N 70°38' E 023°40'0 0.0
2017-Dec-14 10:30N 70°38' E 023°40'0 0.0
2017-Dec-14 10:00N 70°38' E 023°40'0 0.0
2017-Dec-14 09:30N 70°38' E 023°40'0 0.0
2017-Dec-14 09:00N 70°38' E 023°40'0 0.0
2017-Dec-14 08:30N 70°38' E 023°40'0 0.0
2017-Dec-14 08:00N 70°38' E 023°40'0 0.0
2017-Dec-14 07:30N 70°38' E 023°40'0 0.0
2017-Dec-14 07:00N 70°38' E 023°40'0 0.0
2017-Dec-14 06:30N 70°38' E 023°40'0 0.0
2017-Dec-14 06:00N 70°38' E 023°40'0 0.0
2017-Dec-14 05:30N 70°38' E 023°40'0 0.0
2017-Dec-14 05:00N 70°38' E 023°40'0 0.0
2017-Dec-14 04:30N 70°38' E 023°40'0 0.0
2017-Dec-14 04:00N 70°38' E 023°40'0 0.0
2017-Dec-14 03:29N 70°38' E 023°40'0 0.0
2017-Dec-14 03:00N 70°38' E 023°40'0 0.0
2017-Dec-14 02:30N 70°38' E 023°40'0 0.0
2017-Dec-14 02:00N 70°38' E 023°40'0 0.0
2017-Dec-14 01:30N 70°38' E 023°40'0 0.0
2017-Dec-14 01:00N 70°38' E 023°40'0 0.0
2017-Dec-14 00:30N 70°38' E 023°40'0 0.0
2017-Dec-14 00:00N 70°38' E 023°40'0 0.0
2017-Dec-13 23:30N 70°38' E 023°40'0 0.0
2017-Dec-13 23:00N 70°38' E 023°40'0 0.0
2017-Dec-13 22:30N 70°38' E 023°40'0 0.0
2017-Dec-13 22:00N 70°38' E 023°40'0 0.0
2017-Dec-13 21:30N 70°38' E 023°40'0 0.0
2017-Dec-13 21:00N 70°38' E 023°40'0 0.0
2017-Dec-13 20:30N 70°38' E 023°40'0 0.0
2017-Dec-13 20:00N 70°38' E 023°40'0 0.0
2017-Dec-13 19:29N 70°38' E 023°40'0 0.0
2017-Dec-13 18:59N 70°38' E 023°40'0 0.0
2017-Dec-13 18:30N 70°38' E 023°40'0 0.0
2017-Dec-13 17:59N 70°38' E 023°40'0 0.0
2017-Dec-13 17:29N 70°38' E 023°40'0 0.0
2017-Dec-13 16:59N 70°38' E 023°40'0 0.0
2017-Dec-13 16:29N 70°38' E 023°40'0 0.0
2017-Dec-13 15:59N 70°38' E 023°40'0 0.0
2017-Dec-13 15:30N 70°38' E 023°40'0 0.0
2017-Dec-13 15:00N 70°38' E 023°40'1 2.4
2017-Dec-13 14:30N 70°38' E 023°36'5 9.5
2017-Dec-13 14:01N 70°43' E 023°33'611.2
2017-Dec-13 13:31N 70°49' E 023°31'510.3
2017-Dec-13 13:00N 70°53' E 023°21'510.1
2017-Dec-13 12:30N 70°56' E 023°11'510.2
2017-Dec-13 12:00N 71°00' E 023°01'510.4
2017-Dec-13 11:30N 71°04' E 022°51'510.6
2017-Dec-13 11:00N 71°09' E 022°41'2 0.4
2017-Dec-13 04:59N 71°11' E 022°39'5 9.7
2017-Dec-13 04:30N 71°07' E 022°48'5 9.8
2017-Dec-13 04:00N 71°03' E 022°56'5 9.7
2017-Dec-13 03:30N 70°59' E 023°05'5 9.8
2017-Dec-13 03:00N 70°55' E 023°14'510.8
2017-Dec-13 02:30N 70°51' E 023°26'510.1
2017-Dec-13 02:00N 70°47' E 023°32'511.0
2017-Dec-13 01:30N 70°41' E 023°33'4 7.1
2017-Dec-13 01:00N 70°38' E 023°39'0 0.6
2017-Dec-13 00:29N 70°38' E 023°40'0 0.0
2017-Dec-12 23:59N 70°38' E 023°40'0 0.0
2017-Dec-12 23:30N 70°38' E 023°40'0 0.0
2017-Dec-12 22:59N 70°38' E 023°40'0 0.0
2017-Dec-12 22:29N 70°38' E 023°40'0 0.0
2017-Dec-12 21:59N 70°38' E 023°40'0 0.0
2017-Dec-12 21:29N 70°38' E 023°40'0 0.0
2017-Dec-12 21:00N 70°38' E 023°40'0 0.0
2017-Dec-12 20:29N 70°38' E 023°40'0 0.0
2017-Dec-12 19:59N 70°38' E 023°40'0 0.0
2017-Dec-12 19:30N 70°38' E 023°40'0 0.0
2017-Dec-12 18:59N 70°38' E 023°40'0 0.0
2017-Dec-12 18:29N 70°38' E 023°40'0 0.0
2017-Dec-12 17:59N 70°38' E 023°40'0 0.0
2017-Dec-12 17:29N 70°38' E 023°40'0 0.0
2017-Dec-12 16:59N 70°38' E 023°40'0 0.0
2017-Dec-12 16:29N 70°38' E 023°40'0 0.0
2017-Dec-12 15:59N 70°38' E 023°40'0 0.0
2017-Dec-12 15:29N 70°38' E 023°40'0 0.0
2017-Dec-12 14:59N 70°38' E 023°40'0 0.0
2017-Dec-12 14:29N 70°38' E 023°40'0 0.0
2017-Dec-12 13:59N 70°38' E 023°40'0 0.0
2017-Dec-12 13:29N 70°38' E 023°40'0 0.0
2017-Dec-12 12:59N 70°38' E 023°40'0 0.0
2017-Dec-12 12:29N 70°38' E 023°40'0 0.0
2017-Dec-12 11:59N 70°38' E 023°40'0 0.0
2017-Dec-12 11:29N 70°38' E 023°40'0 0.0
2017-Dec-12 10:59N 70°38' E 023°40'0 0.0
2017-Dec-12 10:29N 70°38' E 023°40'0 0.0
2017-Dec-12 09:59N 70°38' E 023°40'0 0.0
2017-Dec-12 09:29N 70°38' E 023°40'0 0.0
2017-Dec-12 08:59N 70°38' E 023°40'0 0.0
2017-Dec-12 08:29N 70°38' E 023°40'0 0.0
2017-Dec-12 07:59N 70°38' E 023°40'0 0.0
2017-Dec-12 07:29N 70°38' E 023°40'0 0.0
2017-Dec-12 06:59N 70°38' E 023°40'0 0.0
2017-Dec-12 06:29N 70°38' E 023°40'0 0.0
2017-Dec-12 05:59N 70°38' E 023°40'0 0.0
2017-Dec-12 05:29N 70°38' E 023°40'0 0.0
2017-Dec-12 04:59N 70°38' E 023°40'0 0.0
2017-Dec-12 04:29N 70°38' E 023°40'0 0.0
2017-Dec-12 03:59N 70°38' E 023°40'0 0.0
2017-Dec-12 03:29N 70°38' E 023°40'0 0.0
2017-Dec-12 02:59N 70°38' E 023°40'0 0.0
2017-Dec-12 02:29N 70°38' E 023°40'0 0.0
2017-Dec-12 01:59N 70°38' E 023°40'0 0.0
2017-Dec-12 01:29N 70°38' E 023°40'0 0.0
2017-Dec-12 00:59N 70°38' E 023°40'0 0.0
2017-Dec-12 00:29N 70°38' E 023°40'0 0.0
2017-Dec-11 23:59N 70°38' E 023°40'0 0.0
2017-Dec-11 23:29N 70°38' E 023°40'0 0.0
2017-Dec-11 22:59N 70°38' E 023°40'0 0.0
2017-Dec-11 22:29N 70°38' E 023°40'0 0.0
2017-Dec-11 21:59N 70°38' E 023°40'0 0.0
2017-Dec-11 21:29N 70°38' E 023°40'0 0.0
2017-Dec-11 20:59N 70°38' E 023°40'0 0.0
2017-Dec-11 20:29N 70°38' E 023°40'0 0.0
2017-Dec-11 19:59N 70°38' E 023°40'0 0.0
2017-Dec-11 19:29N 70°38' E 023°40'0 0.0
2017-Dec-11 18:59N 70°38' E 023°40'0 0.0
2017-Dec-11 18:29N 70°38' E 023°40'0 0.0
2017-Dec-11 17:59N 70°38' E 023°40'0 0.0
2017-Dec-11 17:29N 70°38' E 023°40'0 0.0
2017-Dec-11 16:59N 70°38' E 023°40'0 0.0
2017-Dec-11 16:29N 70°38' E 023°40'0 0.0
2017-Dec-11 15:59N 70°38' E 023°40'0 0.0
2017-Dec-11 15:29N 70°38' E 023°40'0 0.0
2017-Dec-11 14:59N 70°38' E 023°40'0 0.0
2017-Dec-11 14:29N 70°38' E 023°40'0 0.0
2017-Dec-11 13:53N 70°38' E 023°40'0 0.0
2017-Dec-11 13:29N 70°38' E 023°40'0 0.0
2017-Dec-11 12:59N 70°38' E 023°40'0 0.0
2017-Dec-11 12:29N 70°38' E 023°40'0 0.0
2017-Dec-11 11:59N 70°38' E 023°40'0 0.0
2017-Dec-11 11:29N 70°38' E 023°40'0 0.0
2017-Dec-11 10:59N 70°38' E 023°40'0 0.0
2017-Dec-11 10:29N 70°38' E 023°40'0 0.0
2017-Dec-11 09:59N 70°38' E 023°40'0 0.0
2017-Dec-11 09:29N 70°38' E 023°40'0 0.0
2017-Dec-11 08:59N 70°38' E 023°40'0 0.0
2017-Dec-11 08:29N 70°38' E 023°40'0 0.0
2017-Dec-11 07:59N 70°38' E 023°40'0 0.0
2017-Dec-11 07:29N 70°38' E 023°40'0 0.0
2017-Dec-11 06:59N 70°38' E 023°40'0 0.0
2017-Dec-11 06:29N 70°38' E 023°40'0 0.0
2017-Dec-11 05:59N 70°38' E 023°40'0 0.0
2017-Dec-11 05:29N 70°38' E 023°40'0 0.0
2017-Dec-11 04:59N 70°38' E 023°40'0 0.0
2017-Dec-11 04:29N 70°38' E 023°40'0 0.0
2017-Dec-11 03:59N 70°38' E 023°40'0 0.0
2017-Dec-11 03:29N 70°38' E 023°40'0 0.0
2017-Dec-11 02:59N 70°38' E 023°40'0 0.0
2017-Dec-11 02:29N 70°38' E 023°40'0 0.0
2017-Dec-11 01:59N 70°38' E 023°40'0 0.0
2017-Dec-11 01:29N 70°38' E 023°40'0 0.0
2017-Dec-11 00:59N 70°38' E 023°40'0 0.0
2017-Dec-11 00:29N 70°38' E 023°40'0 0.0
2017-Dec-10 23:59N 70°38' E 023°40'0 0.0
2017-Dec-10 23:29N 70°38' E 023°40'0 0.0
2017-Dec-10 22:59N 70°38' E 023°40'0 0.0
2017-Dec-10 22:29N 70°38' E 023°40'0 0.0
2017-Dec-10 21:59N 70°38' E 023°40'0 0.0
2017-Dec-10 21:29N 70°38' E 023°40'0 0.0
2017-Dec-10 20:59N 70°38' E 023°40'0 0.0
2017-Dec-10 20:29N 70°38' E 023°40'0 0.0
2017-Dec-10 19:59N 70°38' E 023°40'0 0.0
2017-Dec-10 19:30N 70°38' E 023°40'3 5.3
2017-Dec-10 19:00N 70°40' E 023°34'5 9.6
2017-Dec-10 18:30N 70°45' E 023°33'5 9.8
2017-Dec-10 18:00N 70°50' E 023°30'510.2
2017-Dec-10 17:30N 70°53' E 023°19'3 5.5
2017-Dec-10 17:00N 70°56' E 023°14'4 8.0
2017-Dec-10 16:30N 70°59' E 023°06'611.2
2017-Dec-10 16:00N 71°03' E 022°56'511.0
2017-Dec-10 15:30N 71°08' E 022°46'4 0.5
2017-Dec-10 07:07N 71°11' E 022°39'1 8.9
2017-Dec-10 07:00N 71°10' E 022°41'5 9.3
2017-Dec-10 06:30N 71°06' E 022°49'5 9.7
2017-Dec-10 06:00N 71°02' E 022°58'510.5
2017-Dec-10 05:30N 70°58' E 023°08'510.2
2017-Dec-10 05:00N 70°54' E 023°17'510.2
2017-Dec-10 04:30N 70°50' E 023°28'510.1
2017-Dec-10 03:59N 70°45' E 023°33'511.0
2017-Dec-10 03:30N 70°40' E 023°34'3 5.5
2017-Dec-10 03:00N 70°38' E 023°40'0 0.0
2017-Dec-10 02:30N 70°38' E 023°40'0 0.0
2017-Dec-10 02:00N 70°38' E 023°40'0 0.0
2017-Dec-10 01:30N 70°38' E 023°40'0 0.0
2017-Dec-10 01:00N 70°38' E 023°40'0 0.0
2017-Dec-10 00:30N 70°38' E 023°40'0 0.0
2017-Dec-10 00:00N 70°38' E 023°40'0 0.0
2017-Dec-09 23:30N 70°38' E 023°40'0 0.0
2017-Dec-09 23:00N 70°38' E 023°40'0 0.0
2017-Dec-09 22:30N 70°38' E 023°40'0 0.0
2017-Dec-09 22:00N 70°38' E 023°40'0 0.0
2017-Dec-09 21:30N 70°38' E 023°40'0 0.0
2017-Dec-09 21:00N 70°38' E 023°40'0 0.0
2017-Dec-09 20:30N 70°38' E 023°40'0 0.0
2017-Dec-09 20:00N 70°38' E 023°40'0 0.0
2017-Dec-09 19:30N 70°38' E 023°40'0 0.0
2017-Dec-09 19:00N 70°38' E 023°40'0 0.0
2017-Dec-09 18:30N 70°38' E 023°40'0 0.0
2017-Dec-09 18:00N 70°38' E 023°40'0 0.0
2017-Dec-09 17:30N 70°38' E 023°40'0 0.0
2017-Dec-09 17:00N 70°38' E 023°40'0 0.0
2017-Dec-09 16:30N 70°38' E 023°40'0 0.0
2017-Dec-09 16:00N 70°38' E 023°40'0 0.0
2017-Dec-09 15:30N 70°38' E 023°40'0 0.0
2017-Dec-09 15:00N 70°38' E 023°40'0 0.0
2017-Dec-09 14:30N 70°38' E 023°40'0 0.0
2017-Dec-09 14:00N 70°38' E 023°40'0 0.0
2017-Dec-09 13:30N 70°38' E 023°40'0 0.0
2017-Dec-09 13:00N 70°38' E 023°40'0 0.0
2017-Dec-09 12:30N 70°38' E 023°40'0 0.0
2017-Dec-09 12:00N 70°38' E 023°40'0 0.0
2017-Dec-09 11:30N 70°38' E 023°40'0 0.0
2017-Dec-09 11:00N 70°38' E 023°40'0 0.0
2017-Dec-09 10:30N 70°38' E 023°40'0 0.0
2017-Dec-09 10:00N 70°38' E 023°40'0 0.0
2017-Dec-09 09:30N 70°38' E 023°40'0 0.0
2017-Dec-09 09:00N 70°38' E 023°40'0 0.0
2017-Dec-09 08:30N 70°38' E 023°40'0 0.0
2017-Dec-09 08:00N 70°38' E 023°40'0 0.0
2017-Dec-09 07:30N 70°38' E 023°40'0 0.0
2017-Dec-09 07:00N 70°38' E 023°40'0 0.0
2017-Dec-09 06:30N 70°38' E 023°40'0 0.0
2017-Dec-09 06:00N 70°38' E 023°40'0 0.0
2017-Dec-09 05:30N 70°38' E 023°40'0 0.0
2017-Dec-09 05:00N 70°38' E 023°40'0 0.0
2017-Dec-09 04:30N 70°38' E 023°40'0 0.0
2017-Dec-09 04:00N 70°38' E 023°40'0 0.0
2017-Dec-09 03:30N 70°38' E 023°40'0 0.0
2017-Dec-09 03:00N 70°38' E 023°40'0 0.0
2017-Dec-09 02:30N 70°38' E 023°40'0 0.0
2017-Dec-09 02:00N 70°38' E 023°40'0 0.0
2017-Dec-09 01:30N 70°38' E 023°40'0 0.0
2017-Dec-09 01:00N 70°38' E 023°40'0 0.0
2017-Dec-09 00:30N 70°38' E 023°40'0 0.0
2017-Dec-09 00:00N 70°38' E 023°40'0 0.0
2017-Dec-08 23:30N 70°38' E 023°40'0 0.0
2017-Dec-08 23:00N 70°38' E 023°40'0 0.0
2017-Dec-08 22:30N 70°38' E 023°40'0 0.0
2017-Dec-08 22:00N 70°38' E 023°40'0 0.0
2017-Dec-08 21:30N 70°38' E 023°40'0 0.0
2017-Dec-08 21:00N 70°38' E 023°40'0 0.0
2017-Dec-08 20:30N 70°38' E 023°40'0 0.0
2017-Dec-08 20:00N 70°38' E 023°40'0 0.0
2017-Dec-08 19:30N 70°38' E 023°40'0 0.0
2017-Dec-08 19:00N 70°38' E 023°40'0 0.0
2017-Dec-08 18:30N 70°38' E 023°40'0 0.0
2017-Dec-08 18:00N 70°38' E 023°40'  

Dump ship's entire track history